createdAt,value
2019-03-10T00:01:26.836Z,27.00
2019-03-10T00:03:57.115Z,33.37
2019-03-10T00:06:26.771Z,37.83
2019-03-10T00:08:56.971Z,47.33
2019-03-10T00:11:26.650Z,34.30
2019-03-10T00:13:56.860Z,41.70
2019-03-10T00:16:26.611Z,40.40
2019-03-10T00:18:57.538Z,38.07
2019-03-10T00:21:27.177Z,41.37
2019-03-10T00:23:57.388Z,33.03
2019-03-10T00:26:27.074Z,39.13
2019-03-10T00:28:57.263Z,37.17
2019-03-10T00:31:26.938Z,40.37
2019-03-10T00:33:56.444Z,35.93
2019-03-10T00:36:26.002Z,45.27
2019-03-10T00:39:22.142Z,31.87
2019-03-10T00:42:28.403Z,41.30
2019-03-10T00:45:14.170Z,33.40
2019-03-10T00:48:07.119Z,35.93
2019-03-10T00:51:20.074Z,33.13
2019-03-10T00:53:49.713Z,45.70
2019-03-10T00:56:19.263Z,38.43
2019-03-10T00:58:49.508Z,32.83
2019-03-10T01:01:19.150Z,33.03
2019-03-10T01:03:49.364Z,32.63
2019-03-10T01:06:19.026Z,23.27
2019-03-10T01:08:49.231Z,26.10
2019-03-10T01:11:18.890Z,27.00
2019-03-10T01:13:49.171Z,17.23
2019-03-10T01:16:19.966Z,24.53
2019-03-10T01:18:51.251Z,18.53
2019-03-10T01:21:23.103Z,27.63
2019-03-10T01:23:53.403Z,18.17
2019-03-10T01:26:23.078Z,24.47
2019-03-10T01:28:53.295Z,21.83
2019-03-10T01:31:32.541Z,17.10
2019-03-10T01:34:36.815Z,14.10
2019-03-10T01:37:07.150Z,22.93
2019-03-10T01:39:37.399Z,20.57
2019-03-10T01:42:07.703Z,23.00
2019-03-10T01:44:37.993Z,19.97
2019-03-10T01:47:08.302Z,16.40
2019-03-10T01:49:38.658Z,22.83
2019-03-10T01:52:08.944Z,18.07
2019-03-10T01:54:38.605Z,20.10
2019-03-10T01:57:08.173Z,18.73
2019-03-10T01:59:38.418Z,11.53
2019-03-10T02:02:08.053Z,13.93
2019-03-10T02:04:38.245Z,11.60
2019-03-10T02:07:07.907Z,13.90
2019-03-10T02:09:38.142Z,11.87
2019-03-10T02:12:08.489Z,11.27
2019-03-10T02:14:38.780Z,8.60
2019-03-10T02:17:08.469Z,10.63
2019-03-10T02:19:40.715Z,6.73
2019-03-10T02:22:11.020Z,9.27
2019-03-10T02:24:40.665Z,10.87
2019-03-10T02:27:10.879Z,11.80
2019-03-10T02:29:40.547Z,10.77
2019-03-10T02:32:10.787Z,8.20
2019-03-10T02:34:40.420Z,9.60
2019-03-10T02:37:10.659Z,7.00
2019-03-10T02:39:43.518Z,8.60
2019-03-10T02:42:13.207Z,6.67
2019-03-10T02:44:43.408Z,4.00
2019-03-10T02:47:13.710Z,8.80
2019-03-10T02:49:43.365Z,4.63
2019-03-10T02:52:13.576Z,4.73
2019-03-10T02:54:43.863Z,4.90
2019-03-10T02:57:14.155Z,4.57
2019-03-10T02:59:44.465Z,3.63
2019-03-10T03:02:14.756Z,2.77
2019-03-10T03:04:45.090Z,2.40
2019-03-10T03:07:14.715Z,3.87
2019-03-10T03:09:44.944Z,1.67
2019-03-10T03:12:15.258Z,1.87
2019-03-10T03:14:45.559Z,14.17
2019-03-10T03:17:15.205Z,17.00
2019-03-10T03:19:45.633Z,22.03
2019-03-10T03:22:15.923Z,22.93
2019-03-10T03:24:46.242Z,32.47
2019-03-10T03:27:15.915Z,33.63
2019-03-10T03:29:46.164Z,31.27
2019-03-10T03:32:16.456Z,31.23
2019-03-10T03:34:46.764Z,29.75
2019-03-10T03:37:20.031Z,29.90
2019-03-10T03:39:52.416Z,46.63
2019-03-10T03:42:22.076Z,33.13
2019-03-10T03:44:52.317Z,35.40
2019-03-10T03:47:21.978Z,34.13
2019-03-10T03:49:52.238Z,30.47
2019-03-10T03:52:21.891Z,25.73
2019-03-10T03:54:52.102Z,33.90
2019-03-10T03:57:22.410Z,36.97
2019-03-10T03:59:52.872Z,36.10
2019-03-10T04:02:51.324Z,40.23
2019-03-10T04:05:21.652Z,39.63
2019-03-10T04:07:51.956Z,41.67
2019-03-10T04:10:22.272Z,41.73
2019-03-10T04:12:51.925Z,45.50
2019-03-10T04:15:21.533Z,37.67
2019-03-10T04:17:51.119Z,50.10
2019-03-10T04:20:20.864Z,46.98
2019-03-10T04:22:51.086Z,45.80
2019-03-10T04:25:21.403Z,55.20
2019-03-10T04:27:51.069Z,58.80
2019-03-10T04:30:20.662Z,57.67
2019-03-10T04:32:50.879Z,53.70
2019-03-10T04:35:20.947Z,55.83
2019-03-10T04:37:50.521Z,43.27
2019-03-10T04:40:20.863Z,63.60
2019-03-10T04:42:51.046Z,54.73
2019-03-10T04:45:21.119Z,52.13
2019-03-10T04:47:50.687Z,63.17
2019-03-10T04:50:20.663Z,50.10
2019-03-10T04:52:50.913Z,56.27
2019-03-10T04:55:36.044Z,51.87
2019-03-10T04:58:08.812Z,38.37
2019-03-10T05:00:40.483Z,51.73
2019-03-10T05:03:10.154Z,46.70
2019-03-10T05:05:40.415Z,46.47
2019-03-10T05:08:10.126Z,61.97
2019-03-10T05:10:40.374Z,55.63
2019-03-10T05:13:10.130Z,56.00
2019-03-10T05:15:39.641Z,57.17
2019-03-10T05:18:09.974Z,48.50
2019-03-10T05:20:40.331Z,55.90
2019-03-10T05:23:27.507Z,56.70
2019-03-10T05:25:57.807Z,57.70
2019-03-10T05:28:28.539Z,49.53
2019-03-10T05:30:58.196Z,50.40
2019-03-10T05:33:28.473Z,62.10
2019-03-10T05:35:58.844Z,60.47
2019-03-10T05:38:29.160Z,60.00
2019-03-10T05:40:59.469Z,60.03
2019-03-10T05:43:29.794Z,57.87
2019-03-10T05:46:00.183Z,57.20
2019-03-10T05:48:30.499Z,63.70
2019-03-10T05:51:00.807Z,54.70
2019-03-10T05:53:31.155Z,62.33
2019-03-10T05:56:00.885Z,63.33
2019-03-10T05:58:31.119Z,68.40
2019-03-10T06:01:01.427Z,66.40
2019-03-10T06:03:31.098Z,65.57
2019-03-10T06:06:01.484Z,73.03
2019-03-10T06:08:31.831Z,51.77
2019-03-10T06:11:01.502Z,64.43
2019-03-10T06:13:31.759Z,60.57
2019-03-10T06:16:01.431Z,51.33
2019-03-10T06:18:31.691Z,63.87
2019-03-10T06:21:01.354Z,55.53
2019-03-10T06:23:31.571Z,67.73
2019-03-10T06:26:01.932Z,66.53
2019-03-10T06:28:31.582Z,69.13
2019-03-10T06:31:01.815Z,71.83
2019-03-10T06:33:31.466Z,58.80
2019-03-10T06:36:01.737Z,70.13
2019-03-10T06:38:31.407Z,57.97
2019-03-10T06:41:01.619Z,73.67
2019-03-10T06:43:31.934Z,58.40
2019-03-10T06:46:01.622Z,61.17
2019-03-10T06:48:32.032Z,63.75
2019-03-10T06:51:02.345Z,60.43
2019-03-10T06:53:31.991Z,72.60
2019-03-10T06:56:01.587Z,63.83
2019-03-10T06:58:31.163Z,70.93
2019-03-10T07:01:01.511Z,59.10
2019-03-10T07:03:31.855Z,73.27
2019-03-10T07:06:01.452Z,69.47
2019-03-10T07:08:32.615Z,54.63
2019-03-10T07:11:03.095Z,60.57
2019-03-10T07:13:32.762Z,60.77
2019-03-10T07:16:02.315Z,67.00
2019-03-10T07:18:31.926Z,59.57
2019-03-10T07:21:02.171Z,54.90
2019-03-10T07:23:32.515Z,58.40
2019-03-10T07:26:08.918Z,66.57
2019-03-10T07:29:01.160Z,49.00
2019-03-10T07:31:50.422Z,61.80
2019-03-10T07:34:54.694Z,67.10
2019-03-10T07:37:43.966Z,56.60
2019-03-10T07:40:45.538Z,60.13
2019-03-10T07:43:26.919Z,52.23
2019-03-10T07:46:22.986Z,48.07
2019-03-10T07:49:11.527Z,51.07
2019-03-10T07:52:20.302Z,56.07
2019-03-10T07:54:54.471Z,46.43
2019-03-10T07:57:43.760Z,38.10
2019-03-10T08:00:35.555Z,37.33
2019-03-10T08:03:26.817Z,40.67
2019-03-10T08:06:11.965Z,38.23
2019-03-10T08:08:50.887Z,29.82
2019-03-10T08:11:31.964Z,29.97
2019-03-10T08:14:16.394Z,31.00
2019-03-10T08:16:57.296Z,28.93
2019-03-10T08:19:41.675Z,24.40
2019-03-10T08:22:46.184Z,19.30
2019-03-10T08:25:33.896Z,21.48
2019-03-10T08:28:11.782Z,15.23
2019-03-10T08:31:04.140Z,16.00
2019-03-10T08:33:59.360Z,15.37
2019-03-10T08:36:51.180Z,10.27
2019-03-10T08:39:48.924Z,4.20
2019-03-10T08:42:38.086Z,5.73
2019-03-10T08:45:27.481Z,4.47
2019-03-10T08:48:22.809Z,5.07
2019-03-10T08:50:57.143Z,5.20
2019-03-10T08:53:45.739Z,3.63
2019-03-10T08:56:32.404Z,2.37
2019-03-10T08:59:19.959Z,2.90
2019-03-10T09:01:57.804Z,3.17
2019-03-10T09:04:50.082Z,2.05
2019-03-10T09:07:28.942Z,3.50
2019-03-10T09:10:20.920Z,0.87
2019-03-10T09:13:00.226Z,1.50
2019-03-10T09:15:41.191Z,1.70
2019-03-10T09:18:39.003Z,2.30
2019-03-10T09:21:34.281Z,0.33
2019-03-10T09:24:32.551Z,2.63
2019-03-10T09:27:21.268Z,2.00
2019-03-10T09:30:19.615Z,4.20
2019-03-10T09:33:11.700Z,2.40
2019-03-10T09:36:07.064Z,0.47
2019-03-10T09:39:06.032Z,1.70
2019-03-10T09:41:48.597Z,3.47
2019-03-10T09:44:36.347Z,0.70
2019-03-10T09:47:28.017Z,1.80
2019-03-10T09:50:11.363Z,1.23
2019-03-10T09:53:03.306Z,0.90
2019-03-10T09:55:44.529Z,1.10
2019-03-10T09:58:20.404Z,1.30
2019-03-10T10:01:08.295Z,0.27
2019-03-10T10:04:03.823Z,0.53
2019-03-10T10:06:41.648Z,1.53
2019-03-10T10:09:33.987Z,1.30
2019-03-10T10:12:23.228Z,1.60
2019-03-10T10:15:24.674Z,1.30
2019-03-10T10:18:16.884Z,1.93
2019-03-10T10:20:54.963Z,1.20
2019-03-10T10:23:46.638Z,1.07
2019-03-10T10:26:38.315Z,2.60
2019-03-10T10:29:22.071Z,4.27
2019-03-10T10:31:57.908Z,1.73
2019-03-10T10:34:55.683Z,1.80
2019-03-10T10:37:43.206Z,1.97
2019-03-10T10:40:41.154Z,4.80
2019-03-10T10:43:30.087Z,0.90
2019-03-10T10:46:15.102Z,1.53
2019-03-10T10:49:13.391Z,2.77
2019-03-10T10:52:02.631Z,1.87
2019-03-10T10:54:56.588Z,1.65
2019-03-10T10:57:47.455Z,4.57
2019-03-10T11:00:39.186Z,2.10
2019-03-10T11:03:27.210Z,3.93
2019-03-10T11:06:24.787Z,10.10
2019-03-10T11:09:15.575Z,6.30
2019-03-10T11:12:19.278Z,6.27
2019-03-10T11:15:06.904Z,4.97
2019-03-10T11:17:52.366Z,3.17
2019-03-10T11:20:29.165Z,3.00
2019-03-10T11:23:21.171Z,2.17
2019-03-10T11:26:19.059Z,2.00
2019-03-10T11:29:06.314Z,2.20
2019-03-10T11:31:44.150Z,3.47
2019-03-10T11:34:43.903Z,1.75
2019-03-10T11:37:45.202Z,6.33
2019-03-10T11:40:43.455Z,1.77
2019-03-10T11:43:44.783Z,4.77
2019-03-10T11:46:40.470Z,10.45
2019-03-10T11:49:35.207Z,4.00
2019-03-10T11:52:22.469Z,4.87
2019-03-10T11:55:30.151Z,4.23
2019-03-10T11:58:24.938Z,11.90
2019-03-10T12:01:16.788Z,2.47
2019-03-10T12:03:54.877Z,5.77
2019-03-10T12:06:39.743Z,2.13
2019-03-10T12:09:20.777Z,3.60
2019-03-10T12:11:51.346Z,6.63
2019-03-10T12:14:21.677Z,3.70
2019-03-10T12:16:51.334Z,1.57
2019-03-10T12:19:22.044Z,2.90
2019-03-10T12:21:52.319Z,2.47
2019-03-10T12:24:22.656Z,2.07
2019-03-10T12:26:52.301Z,5.50
2019-03-10T12:29:22.526Z,2.43
2019-03-10T12:31:52.869Z,2.40
2019-03-10T12:34:23.182Z,1.97
2019-03-10T12:36:52.873Z,2.80
2019-03-10T12:39:23.144Z,1.73
2019-03-10T12:41:58.346Z,6.47
2019-03-10T12:44:25.445Z,3.13
2019-03-10T12:46:55.099Z,5.83
2019-03-10T12:49:24.683Z,3.97
2019-03-10T12:51:54.883Z,4.80
2019-03-10T12:54:25.231Z,7.73
2019-03-10T12:56:55.540Z,7.10
2019-03-10T12:59:25.865Z,2.53
2019-03-10T13:01:56.178Z,2.50
2019-03-10T13:04:26.503Z,5.97
2019-03-10T13:06:56.183Z,3.87
2019-03-10T13:09:26.391Z,4.17
2019-03-10T13:11:56.140Z,7.80
2019-03-10T13:14:26.351Z,6.13
2019-03-10T13:16:56.036Z,6.50
2019-03-10T13:19:26.261Z,2.80
2019-03-10T13:21:56.579Z,4.27
2019-03-10T13:24:26.243Z,3.80
2019-03-10T13:26:55.820Z,4.83
2019-03-10T13:29:25.398Z,5.03
2019-03-10T13:31:55.679Z,2.53
2019-03-10T13:34:26.013Z,4.73
2019-03-10T13:36:56.318Z,4.50
2019-03-10T13:39:25.999Z,4.53
2019-03-10T13:41:55.571Z,3.33
2019-03-10T13:44:25.818Z,4.70
2019-03-10T13:46:55.575Z,5.97
2019-03-10T13:49:25.175Z,2.27
2019-03-10T13:51:55.439Z,6.70
2019-03-10T13:54:25.125Z,4.65
2019-03-10T13:56:54.710Z,3.37
2019-03-10T13:59:25.097Z,4.10
2019-03-10T14:01:54.762Z,6.33
2019-03-10T14:04:25.001Z,14.00
2019-03-10T14:06:55.308Z,8.97
2019-03-10T14:09:25.643Z,10.77
2019-03-10T14:11:55.939Z,9.03
2019-03-10T14:14:26.282Z,10.87
2019-03-10T14:16:56.528Z,6.67
2019-03-10T14:19:26.859Z,6.40
2019-03-10T14:21:56.519Z,6.43
2019-03-10T14:24:26.762Z,2.70
2019-03-10T14:26:56.425Z,2.27
2019-03-10T14:29:26.659Z,2.23
2019-03-10T14:31:56.346Z,1.90
2019-03-10T14:34:26.552Z,5.03
2019-03-10T14:36:56.232Z,4.93
2019-03-10T14:39:26.443Z,11.70
2019-03-10T14:41:56.140Z,7.07
2019-03-10T14:44:26.363Z,9.83
2019-03-10T14:46:56.671Z,4.17
2019-03-10T14:49:26.991Z,1.52
2019-03-10T14:51:57.441Z,4.23
2019-03-10T14:54:27.099Z,2.95
2019-03-10T14:56:56.693Z,4.97
2019-03-10T14:59:26.897Z,3.40
2019-03-10T15:01:57.211Z,3.73
2019-03-10T15:04:26.895Z,4.67
2019-03-10T15:06:56.467Z,6.77
2019-03-10T15:09:26.700Z,1.80
2019-03-10T15:11:57.053Z,7.13
2019-03-10T15:14:27.355Z,4.30
2019-03-10T15:17:01.563Z,3.23
2019-03-10T15:19:28.255Z,2.77
2019-03-10T15:21:58.459Z,4.93
2019-03-10T15:24:28.807Z,3.33
2019-03-10T15:26:58.478Z,4.27
2019-03-10T15:29:28.107Z,2.97
2019-03-10T15:31:58.320Z,4.43
2019-03-10T15:34:28.003Z,3.67
2019-03-10T15:36:57.563Z,2.33
2019-03-10T15:39:27.452Z,4.90
2019-03-10T15:41:57.030Z,12.83
2019-03-10T15:44:27.279Z,3.47
2019-03-10T15:46:57.643Z,10.73
2019-03-10T15:49:27.990Z,4.20
2019-03-10T15:51:58.290Z,4.10
2019-03-10T15:54:27.959Z,2.75
2019-03-10T15:56:58.176Z,2.27
2019-03-10T15:59:27.855Z,2.20
2019-03-10T16:01:58.127Z,4.43
2019-03-10T16:04:28.748Z,4.67
2019-03-10T16:06:58.340Z,1.23
2019-03-10T16:09:27.938Z,3.53
2019-03-10T16:11:57.538Z,3.87
2019-03-10T16:14:27.756Z,2.15
2019-03-10T16:16:57.439Z,4.37
2019-03-10T16:19:27.647Z,4.67
2019-03-10T16:21:57.978Z,4.73
2019-03-10T16:24:28.282Z,3.80
2019-03-10T16:26:57.987Z,4.13
2019-03-10T16:29:28.235Z,4.27
2019-03-10T16:31:57.931Z,5.60
2019-03-10T16:34:28.199Z,3.70
2019-03-10T16:36:57.892Z,6.53
2019-03-10T16:39:27.511Z,6.33
2019-03-10T16:41:57.163Z,7.00
2019-03-10T16:44:26.814Z,7.03
2019-03-10T16:46:57.045Z,5.77
2019-03-10T16:49:27.382Z,10.40
2019-03-10T16:51:57.115Z,10.50
2019-03-10T16:54:27.348Z,7.73
2019-03-10T16:56:57.815Z,5.63
2019-03-10T16:59:27.421Z,7.87
2019-03-10T17:01:57.643Z,3.77
2019-03-10T17:04:27.976Z,6.37
2019-03-10T17:06:58.440Z,4.43
2019-03-10T17:09:28.771Z,8.83
2019-03-10T17:11:58.447Z,4.20
2019-03-10T17:14:28.738Z,3.27
2019-03-10T17:16:58.415Z,4.47
2019-03-10T17:19:28.039Z,9.90
2019-03-10T17:21:57.611Z,7.53
2019-03-10T17:24:27.851Z,4.63
2019-03-10T17:26:58.206Z,5.63
2019-03-10T17:29:27.986Z,8.57
2019-03-10T17:31:58.343Z,6.67
2019-03-10T17:34:28.023Z,5.37
2019-03-10T17:36:58.283Z,9.33
2019-03-10T17:39:27.956Z,7.83
2019-03-10T17:41:57.542Z,6.53
2019-03-10T17:44:27.059Z,6.23
2019-03-10T17:46:56.631Z,6.33
2019-03-10T17:49:26.240Z,5.20
2019-03-10T17:51:55.823Z,10.87
2019-03-10T17:54:26.182Z,5.73
2019-03-10T17:56:56.079Z,10.13
2019-03-10T17:59:26.336Z,6.47
2019-03-10T18:01:56.663Z,11.53
2019-03-10T18:04:26.983Z,10.17
2019-03-10T18:06:57.424Z,10.03
2019-03-10T18:09:27.767Z,8.88
2019-03-10T18:11:58.147Z,7.30
2019-03-10T18:14:28.458Z,7.33
2019-03-10T18:16:58.146Z,10.37
2019-03-10T18:19:27.715Z,11.50
2019-03-10T18:21:57.964Z,8.90
2019-03-10T18:24:27.627Z,10.58
2019-03-10T18:26:57.739Z,11.40
2019-03-10T18:29:27.954Z,14.47
2019-03-10T18:31:58.300Z,11.57
2019-03-10T18:34:27.968Z,15.67
2019-03-10T18:36:57.579Z,16.03
2019-03-10T18:39:27.861Z,24.98
2019-03-10T18:41:57.594Z,21.43
2019-03-10T18:44:27.817Z,21.03
2019-03-10T18:46:57.519Z,15.30
2019-03-10T18:49:27.803Z,21.73
2019-03-10T18:51:58.192Z,20.15
2019-03-10T18:54:28.610Z,20.23
2019-03-10T18:56:58.326Z,15.63
2019-03-10T18:59:28.579Z,17.57
2019-03-10T19:01:58.906Z,25.90
2019-03-10T19:04:29.244Z,20.93
2019-03-10T19:06:59.563Z,12.78
2019-03-10T19:09:29.285Z,14.53
2019-03-10T19:11:59.519Z,11.27
2019-03-10T19:14:29.226Z,11.47
2019-03-10T19:16:59.511Z,11.40
2019-03-10T19:19:29.164Z,14.15
2019-03-10T19:21:59.399Z,21.90
2019-03-10T19:24:29.075Z,17.27
2019-03-10T19:26:58.611Z,12.57
2019-03-10T19:29:28.866Z,14.50
2019-03-10T19:31:59.221Z,15.10
2019-03-10T19:34:29.712Z,15.17
2019-03-10T19:36:59.390Z,12.77
2019-03-10T19:39:28.993Z,15.00
2019-03-10T19:41:58.606Z,10.73
2019-03-10T19:44:28.200Z,14.33
2019-03-10T19:46:58.446Z,12.80
2019-03-10T19:49:28.105Z,12.73
2019-03-10T19:51:58.372Z,12.40
2019-03-10T19:54:28.088Z,14.07
2019-03-10T19:56:58.352Z,10.73
2019-03-10T19:59:28.106Z,13.60
2019-03-10T20:01:58.266Z,6.13
2019-03-10T20:04:27.963Z,14.80
2019-03-10T20:06:57.602Z,14.30
2019-03-10T20:09:27.153Z,15.30
2019-03-10T20:11:57.425Z,11.50
2019-03-10T20:14:27.742Z,8.70
2019-03-10T20:16:58.106Z,8.37
2019-03-10T20:19:28.437Z,10.13
2019-03-10T20:21:58.757Z,10.17
2019-03-10T20:24:28.440Z,10.40
2019-03-10T20:26:58.663Z,6.73
2019-03-10T20:29:28.987Z,6.93
2019-03-10T20:31:59.371Z,9.43
2019-03-10T20:34:29.798Z,6.55
2019-03-10T20:36:59.535Z,5.87
2019-03-10T20:39:29.975Z,6.40
2019-03-10T20:42:05.145Z,9.87
2019-03-10T20:44:31.451Z,4.97
2019-03-10T20:47:01.802Z,4.43
2019-03-10T20:49:32.101Z,1.17
2019-03-10T20:52:02.413Z,2.47
2019-03-10T20:54:32.723Z,1.63
2019-03-10T20:57:03.063Z,1.13
2019-03-10T20:59:32.710Z,0.80
2019-03-10T21:02:03.019Z,1.27
2019-03-10T21:04:32.659Z,1.10
2019-03-10T21:07:02.903Z,3.23
2019-03-10T21:09:32.570Z,0.72
2019-03-10T21:12:02.806Z,1.47
2019-03-10T21:14:32.475Z,0.82
2019-03-10T21:17:02.707Z,0.87
2019-03-10T21:19:33.003Z,2.83
2019-03-10T21:22:02.647Z,0.87
2019-03-10T21:24:32.859Z,2.27
2019-03-10T21:27:02.528Z,6.08
2019-03-10T21:29:32.768Z,2.50
2019-03-10T21:32:02.455Z,5.57
2019-03-10T21:34:32.653Z,2.67
2019-03-10T21:37:02.332Z,3.20
2019-03-10T21:39:34.836Z,6.93
2019-03-10T21:42:03.835Z,8.13
2019-03-10T21:44:34.032Z,8.17
2019-03-10T21:47:03.718Z,8.73
2019-03-10T21:49:33.300Z,12.40
2019-03-10T21:52:02.856Z,9.47
2019-03-10T21:54:33.178Z,3.93
2019-03-10T21:57:02.899Z,3.60
2019-03-10T21:59:33.126Z,7.10
2019-03-10T22:02:02.793Z,6.17
2019-03-10T22:04:32.990Z,4.47
2019-03-10T22:07:03.280Z,5.67
2019-03-10T22:09:33.599Z,5.43
2019-03-10T22:12:03.250Z,7.43
2019-03-10T22:14:33.458Z,5.73
2019-03-10T22:17:03.118Z,5.53
2019-03-10T22:19:33.250Z,3.93
2019-03-10T22:22:03.566Z,3.57
2019-03-10T22:24:33.877Z,9.43
2019-03-10T22:27:03.555Z,6.50
2019-03-10T22:29:33.121Z,5.55
2019-03-10T22:32:03.357Z,7.60
2019-03-10T22:34:33.655Z,7.90
2019-03-10T22:37:03.326Z,7.83
2019-03-10T22:39:33.593Z,7.40
2019-03-10T22:42:03.310Z,7.53
2019-03-10T22:44:33.532Z,5.93
2019-03-10T22:47:03.224Z,6.80
2019-03-10T22:49:33.440Z,9.70
2019-03-10T22:52:03.120Z,2.23
2019-03-10T22:54:33.340Z,7.60
2019-03-10T22:57:03.982Z,3.57
2019-03-10T22:59:33.668Z,4.73
2019-03-10T23:02:03.327Z,6.57
2019-03-10T23:04:32.892Z,7.27
2019-03-10T23:07:03.175Z,5.43
2019-03-10T23:09:32.854Z,4.53
2019-03-10T23:12:03.236Z,4.67
2019-03-10T23:14:33.557Z,4.90
2019-03-10T23:17:03.791Z,5.73
2019-03-10T23:19:34.084Z,4.57
2019-03-10T23:22:04.431Z,7.63
2019-03-10T23:24:34.174Z,4.13
2019-03-10T23:27:04.445Z,4.47
2019-03-10T23:29:34.082Z,7.63
2019-03-10T23:32:03.709Z,8.70
2019-03-10T23:34:33.886Z,9.33
2019-03-10T23:37:03.540Z,7.30
2019-03-10T23:39:33.903Z,3.57
2019-03-10T23:42:04.255Z,6.00
2019-03-10T23:44:34.567Z,4.08
2019-03-10T23:47:04.246Z,9.13
2019-03-10T23:49:33.817Z,10.87
2019-03-10T23:52:04.075Z,4.57
2019-03-10T23:54:34.449Z,12.53
2019-03-10T23:57:04.745Z,9.77
2019-03-10T23:59:35.096Z,4.50
